Terminal Aerodrome Forecast
Issued by NWS Albany, NY

Home | Current Version | Previous Version | Text Only | Print | Product List | Glossary On
Versions: 1 2 3 4 5 6 7 8 9 10 11 12 13 14 15 16 17 18 19 20 21 22
000
FTUS41 KALY 280536
TAFALB
TAF
KALB 280536Z 2806/2906 VRB02KT P6SM SCT090 BKN150
     FM280900 24004KT P6SM VCFG SCT015
     FM281100 26005KT P6SM SCT150
     FM281500 28012G20KT P6SM FEW070 SCT200
     FM290000 28008KT P6SM SCT200
     FM290300 VRB03KT P6SM SCT200=

USA.gov is the U.S. government's official web portal to all federal, state and local government web resources and services.